Time;durP1;ratioP1;P1;durP2;ratioP2;P2;SDS_P1;SDS_P2;PMS_P1;PMS_P2;Temp;Humidity;BMP_temperature;BMP_pressure;BME280_temperature;BME280_humidity;BME280_pressure;Samples;Min_cycle;Max_cycle;Signal;HPM_P1;HPM_P2
2022/08/29 00:00:19;;;;;;;920.53;858.15;;;;;;;18.42;55.29;101386.63;697033;28;45294;-64
2022/08/29 00:00:41;;;;;;;906.10;844.33;;;;;;;18.41;55.36;101380.28;694318;28;51720;-64
2022/08/29 00:01:03;;;;;;;911.70;849.85;;;;;;;18.41;55.56;101385.75;694465;28;45958;-63
2022/08/29 00:01:25;;;;;;;897.50;836.08;;;;;;;18.41;55.35;101383.03;696010;28;5438;-64
2022/08/29 00:01:47;;;;;;;910.13;848.25;;;;;;;18.41;55.53;101384.94;693825;28;69584;-64
2022/08/29 00:02:08;;;;;;;909.67;847.78;;;;;;;18.40;55.50;101380.50;697929;28;22394;-64
2022/08/29 00:02:30;;;;;;;914.20;852.10;;;;;;;18.40;55.63;101384.09;696941;28;1702;-64
2022/08/29 00:02:54;;;;;;;914.85;852.80;;;;;;;18.40;55.51;101380.50;698061;28;22362;-64
2022/08/29 00:03:15;;;;;;;908.70;846.80;;;;;;;18.39;55.49;101376.09;694579;28;115342;-64
2022/08/29 00:03:36;;;;;;;917.85;855.70;;;;;;;18.37;55.32;101373.59;697352;28;44267;-64
2022/08/29 00:03:57;;;;;;;914.00;852.00;;;;;;;18.37;55.67;101379.88;698079;28;22397;-64
2022/08/29 00:04:20;;;;;;;909.42;847.60;;;;;;;18.39;55.65;101381.56;698195;28;22438;-64
2022/08/29 00:04:41;;;;;;;912.55;850.65;;;;;;;18.36;55.39;101383.66;696796;28;46288;-64
2022/08/29 00:05:03;;;;;;;917.83;855.63;;;;;;;18.36;55.50;101378.19;697268;28;21523;-64
2022/08/29 00:05:29;;;;;;;908.92;847.13;;;;;;;18.35;55.57;101381.13;697597;28;46417;-64
2022/08/29 00:05:50;;;;;;;906.85;845.13;;;;;;;18.33;55.50;101384.09;694221;28;137672;-63
2022/08/29 00:06:13;;;;;;;906.38;844.47;;;;;;;18.32;55.60;101376.97;698263;28;22393;-64
2022/08/29 00:06:34;;;;;;;912.25;850.22;;;;;;;18.29;55.76;101382.00;698502;28;44412;-63
2022/08/29 00:06:55;;;;;;;913.00;850.95;;;;;;;18.30;55.63;101380.94;699084;27;46325;-63
2022/08/29 00:07:17;;;;;;;920.03;857.42;;;;;;;18.29;55.92;101376.53;700441;28;22056;-64
2022/08/29 00:07:41;;;;;;;909.92;847.97;;;;;;;18.26;55.96;101380.53;700144;28;45093;-64
2022/08/29 00:08:03;;;;;;;910.53;848.50;;;;;;;18.25;55.85;101381.59;698298;28;91357;-63
2022/08/29 00:08:25;;;;;;;912.50;850.50;;;;;;;18.26;55.77;101380.53;691033;28;67543;-64
2022/08/29 00:08:47;;;;;;;909.90;848.08;;;;;;;18.25;56.09;101376.13;691875;28;46599;-64
2022/08/29 00:09:09;;;;;;;916.88;854.70;;;;;;;18.25;56.16;101376.13;692697;28;45250;-64
2022/08/29 00:09:31;;;;;;;912.22;850.33;;;;;;;18.21;56.16;101377.59;694810;28;44366;-64
2022/08/29 00:09:52;;;;;;;909.33;847.22;;;;;;;18.24;56.14;101382.63;693174;28;1506;-64
2022/08/29 00:10:15;;;;;;;900.88;839.40;;;;;;;18.18;56.21;101372.53;693293;28;22400;-64
2022/08/29 00:10:37;;;;;;;898.65;837.33;;;;;;;18.21;56.07;101382.22;694745;28;44015;-64
2022/08/29 00:10:59;;;;;;;910.80;849.00;;;;;;;18.19;56.03;101383.25;693717;28;69371;-64
2022/08/29 00:11:20;;;;;;;896.40;834.97;;;;;;;18.18;56.28;101378.00;694652;28;44377;-64
2022/08/29 00:11:41;;;;;;;892.80;831.55;;;;;;;18.16;56.27;101380.94;698308;28;22401;-64
2022/08/29 00:12:04;;;;;;;909.35;847.42;;;;;;;18.15;56.43;101379.28;696971;28;44196;-64
2022/08/29 00:12:25;;;;;;;903.08;841.40;;;;;;;18.15;56.28;101382.03;696835;28;67487;-64
2022/08/29 00:12:48;;;;;;;904.67;842.97;;;;;;;18.16;56.50;101385.59;698458;28;20747;-64
2022/08/29 00:13:10;;;;;;;910.08;848.15;;;;;;;18.13;56.42;101377.81;695598;28;46388;-63
2022/08/29 00:13:32;;;;;;;917.15;854.95;;;;;;;18.11;56.66;101380.75;696311;28;1979;-64
2022/08/29 00:13:53;;;;;;;907.28;845.40;;;;;;;18.12;56.49;101385.19;694693;28;46643;-63
2022/08/29 00:14:15;;;;;;;910.78;848.78;;;;;;;18.08;56.56;101370.25;695863;28;1383;-64
2022/08/29 00:14:36;;;;;;;905.88;844.15;;;;;;;18.11;56.45;101382.66;695259;28;46353;-64
2022/08/29 00:14:57;;;;;;;919.17;856.97;;;;;;;18.07;56.78;101384.97;697864;28;22641;-64
2022/08/29 00:15:19;;;;;;;920.72;858.40;;;;;;;18.11;56.64;101388.13;698017;28;22266;-64
2022/08/29 00:15:42;;;;;;;913.85;851.75;;;;;;;18.09;56.61;101387.50;697358;28;46324;-64
2022/08/29 00:16:03;;;;;;;912.47;850.42;;;;;;;18.08;56.78;101383.91;695665;28;69374;-64
2022/08/29 00:16:24;;;;;;;910.47;848.58;;;;;;;18.06;56.45;101382.47;697851;28;22396;-64
2022/08/29 00:16:45;;;;;;;914.90;852.88;;;;;;;18.06;56.84;101386.03;684719;28;23477;-64
2022/08/29 00:17:06;;;;;;;918.47;856.00;;;;;;;18.06;56.83;101382.47;690234;28;23282;-64
2022/08/29 00:17:29;;;;;;;916.10;853.90;;;;;;;18.04;56.84;101381.81;697158;28;46285;-64
2022/08/29 00:17:50;;;;;;;907.88;845.97;;;;;;;18.07;56.88;101382.25;697188;28;44431;-64
2022/08/29 00:18:12;;;;;;;903.72;841.95;;;;;;;18.06;56.77;101386.03;697567;28;21512;-64
2022/08/29 00:18:34;;;;;;;900.53;838.92;;;;;;;18.05;56.84;101389.78;694644;28;45790;-64
2022/08/29 00:18:56;;;;;;;911.00;849.00;;;;;;;18.03;56.87;101385.63;695581;28;46304;-64
2022/08/29 00:19:18;;;;;;;909.83;847.83;;;;;;;18.02;56.79;101384.75;697257;28;44361;-64
2022/08/29 00:19:39;;;;;;;914.38;852.22;;;;;;;18.03;56.79;101385.63;697521;28;46204;-64
2022/08/29 00:20:00;;;;;;;908.80;846.92;;;;;;;18.02;56.96;101390.22;697972;28;22118;-64
2022/08/29 00:20:25;;;;;;;909.97;848.03;;;;;;;17.99;57.18;101387.91;697635;28;22415;-64
2022/08/29 00:20:47;;;;;;;911.90;850.00;;;;;;;17.98;56.90;101386.25;695823;28;92193;-64
2022/08/29 00:21:09;;;;;;;910.05;847.92;;;;;;;17.97;57.19;101382.66;695563;28;67467;-64
2022/08/29 00:21:30;;;;;;;906.65;844.75;;;;;;;17.95;57.15;101384.75;698540;28;22427;-64
2022/08/29 00:21:52;;;;;;;908.67;846.80;;;;;;;17.97;57.13;101384.56;700178;28;22401;-64
2022/08/29 00:22:13;;;;;;;915.53;853.30;;;;;;;17.96;57.01;101381.00;700243;28;44397;-64
2022/08/29 00:22:35;;;;;;;905.58;843.78;;;;;;;17.97;57.20;101384.56;700374;28;44354;-63
2022/08/29 00:22:58;;;;;;;904.05;842.28;;;;;;;17.96;57.16;101378.25;695032;28;45248;-64
2022/08/29 00:23:20;;;;;;;908.35;846.45;;;;;;;17.95;57.14;101386.66;696018;28;5280;-64
2022/08/29 00:23:43;;;;;;;912.08;850.05;;;;;;;17.96;57.38;101381.00;695620;28;22381;-64
2022/08/29 00:24:04;;;;;;;910.05;848.13;;;;;;;17.95;57.30;101379.28;693932;28;70437;-65
2022/08/29 00:24:27;;;;;;;906.53;844.67;;;;;;;17.92;57.15;101376.97;696322;28;46295;-64
2022/08/29 00:24:48;;;;;;;902.05;840.25;;;;;;;17.93;57.25;101386.88;696060;28;1766;-64
2022/08/29 00:25:12;;;;;;;904.35;842.55;;;;;;;17.91;57.32;101378.03;691643;28;46270;-64
2022/08/29 00:25:33;;;;;;;895.42;833.95;;;;;;;17.91;57.47;101379.94;690994;28;69345;-63
2022/08/29 00:25:56;;;;;;;896.63;835.05;;;;;;;17.89;57.48;101382.03;691819;28;44392;-63
2022/08/29 00:26:17;;;;;;;908.10;846.13;;;;;;;17.88;57.73;101383.91;691645;28;44409;-63
2022/08/29 00:26:39;;;;;;;909.28;847.38;;;;;;;17.88;57.54;101383.03;693110;28;22411;-63
2022/08/29 00:27:00;;;;;;;911.20;848.90;;;;;;;17.89;57.75;101391.06;692913;28;46520;-64
2022/08/29 00:27:23;;;;;;;900.95;838.92;;;;;;;17.89;57.74;101379.31;694245;28;45282;-64
2022/08/29 00:27:44;;;;;;;905.17;843.33;;;;;;;17.89;57.53;101377.41;698917;28;46406;-64
2022/08/29 00:28:05;;;;;;;907.03;845.25;;;;;;;17.89;57.79;101385.59;701130;28;1161;-64
2022/08/29 00:28:27;;;;;;;911.13;849.30;;;;;;;17.89;57.72;101382.88;701655;28;863;-64
2022/08/29 00:28:48;;;;;;;901.40;839.80;;;;;;;17.89;57.17;101376.56;697923;28;22354;-64
2022/08/29 00:29:11;;;;;;;903.25;841.45;;;;;;;17.89;57.73;101388.34;695674;28;1446;-64
2022/08/29 00:29:32;;;;;;;907.50;845.67;;;;;;;17.89;57.52;101382.03;693315;28;942;-64
2022/08/29 00:29:54;;;;;;;906.53;844.75;;;;;;;17.90;57.67;101389.16;691755;28;46433;-64
2022/08/29 00:30:17;;;;;;;908.03;846.03;;;;;;;17.89;57.63;101377.41;693298;28;966;-64
2022/08/29 00:30:39;;;;;;;905.42;843.55;;;;;;;17.88;57.81;101383.03;689088;28;67479;-64
2022/08/29 00:31:00;;;;;;;898.63;837.03;;;;;;;17.85;57.72;101387.03;692674;28;46357;-64
2022/08/29 00:31:22;;;;;;;902.63;840.92;;;;;;;17.84;57.75;101379.91;694612;28;46368;-64
2022/08/29 00:31:43;;;;;;;899.00;837.45;;;;;;;17.85;57.78;101381.56;695552;28;5183;-64
2022/08/29 00:32:06;;;;;;;899.47;837.85;;;;;;;17.84;57.53;101380.72;696180;28;26513;-64
2022/08/29 00:32:33;;;;;;;904.72;842.92;;;;;;;17.85;57.81;101384.28;695787;28;68365;-64
2022/08/29 00:32:55;;;;;;;911.58;849.50;;;;;;;17.85;58.00;101387.03;691596;28;136230;-64
2022/08/29 00:33:16;;;;;;;909.80;847.80;;;;;;;17.86;57.76;101385.16;698122;28;22390;-64
2022/08/29 00:33:38;;;;;;;897.05;835.45;;;;;;;17.86;57.83;101383.25;697566;28;45413;-64
2022/08/29 00:33:59;;;;;;;907.65;845.78;;;;;;;17.86;57.63;101386.00;699393;28;44407;-63
2022/08/29 00:34:21;;;;;;;908.53;846.58;;;;;;;17.86;57.76;101385.16;695589;28;21535;-64
2022/08/29 00:34:42;;;;;;;905.47;843.67;;;;;;;17.83;57.87;101387.25;696204;28;21347;-64
2022/08/29 00:35:05;;;;;;;909.20;847.25;;;;;;;17.84;57.86;101382.63;698079;28;21639;-64
2022/08/29 00:35:29;;;;;;;912.78;850.83;;;;;;;17.82;57.92;101380.09;696631;28;69444;-64
2022/08/29 00:35:50;;;;;;;910.22;848.17;;;;;;;17.78;58.13;101372.53;696695;28;115140;-64
2022/08/29 00:36:12;;;;;;;906.20;844.33;;;;;;;17.80;57.79;101384.09;700981;28;22410;-64
2022/08/29 00:36:34;;;;;;;908.55;846.67;;;;;;;17.80;57.74;101386.81;701528;28;7432;-64
2022/08/29 00:36:56;;;;;;;900.50;838.80;;;;;;;17.76;57.75;101389.13;696891;28;69401;-63
2022/08/29 00:37:18;;;;;;;881.55;820.30;;;;;;;17.74;58.30;101380.31;698726;28;46305;-64
2022/08/29 00:37:40;;;;;;;878.10;817.10;;;;;;;17.75;58.04;101387.44;697266;28;44164;-64
2022/08/29 00:38:04;;;;;;;893.33;831.88;;;;;;;17.74;58.19;101390.38;698032;28;21371;-64
2022/08/29 00:38:25;;;;;;;900.72;839.05;;;;;;;17.73;58.29;101384.09;694865;28;115913;-64
2022/08/29 00:38:47;;;;;;;899.90;838.28;;;;;;;17.72;58.31;101389.75;698220;28;22324;-64
2022/08/29 00:39:09;;;;;;;912.10;849.88;;;;;;;17.66;58.34;101375.03;695813;28;44127;-64
2022/08/29 00:39:30;;;;;;;913.13;851.03;;;;;;;17.71;58.22;101383.47;698307;28;22427;-64
2022/08/29 00:39:51;;;;;;;902.97;841.20;;;;;;;17.71;58.16;101382.59;697392;28;45046;-64
2022/08/29 00:40:16;;;;;;;880.78;819.65;;;;;;;17.70;58.25;101379.06;698250;28;23480;-64
2022/08/29 00:40:40;;;;;;;881.83;820.63;;;;;;;17.70;58.19;101381.78;695001;28;113677;-64
2022/08/29 00:41:02;;;;;;;882.33;821.17;;;;;;;17.69;58.30;101382.81;695605;28;93205;-64
2022/08/29 00:41:23;;;;;;;885.90;824.67;;;;;;;17.69;58.39;101382.00;697402;28;46268;-64
2022/08/29 00:41:45;;;;;;;875.10;814.28;;;;;;;17.62;58.20;101377.34;697692;28;22096;-64
2022/08/29 00:42:06;;;;;;;867.80;807.10;;;;;;;17.68;58.22;101377.56;697199;28;46305;-64
2022/08/29 00:42:28;;;;;;;873.70;812.83;;;;;;;17.69;58.12;101377.34;698331;28;22401;-64
2022/08/29 00:42:49;;;;;;;876.78;815.92;;;;;;;17.69;58.33;101376.53;697436;28;46396;-64
2022/08/29 00:43:10;;;;;;;888.70;827.42;;;;;;;17.65;58.28;101376.94;698144;28;23315;-64
2022/08/29 00:43:36;;;;;;;898.35;836.85;;;;;;;17.68;58.22;101375.69;698281;28;22398;-64
2022/08/29 00:43:57;;;;;;;909.85;848.05;;;;;;;17.68;58.25;101380.28;691493;28;139205;-64
2022/08/29 00:44:18;;;;;;;909.15;847.30;;;;;;;17.65;58.43;101370.66;694537;28;45087;-64
2022/08/29 00:44:39;;;;;;;882.72;821.80;;;;;;;17.65;58.16;101378.84;695627;28;22352;-64
2022/08/29 00:45:02;;;;;;;883.70;822.63;;;;;;;17.62;58.48;101371.06;695420;28;23691;-64
2022/08/29 00:45:23;;;;;;;868.45;807.67;;;;;;;17.65;58.28;101381.56;694240;28;69246;-64
2022/08/29 00:45:50;;;;;;;892.75;831.30;;;;;;;17.65;58.40;101385.13;698271;28;22323;-64
2022/08/29 00:46:42;;;;;;;879.30;818.28;;;;;;;17.65;58.44;101376.94;694192;28;138087;-64
2022/08/29 00:47:07;;;;;;;923.25;860.47;;;;;;;17.63;58.50;101375.47;689095;28;157925;-64
2022/08/29 00:47:31;;;;;;;922.63;860.13;;;;;;;17.62;58.38;101382.00;694711;28;115005;-64
2022/08/29 00:47:55;;;;;;;917.55;855.30;;;;;;;17.61;58.40;101374.84;694866;28;115137;-64
2022/08/29 00:48:17;;;;;;;907.70;845.75;;;;;;;17.59;58.63;101379.69;695669;28;90869;-64
2022/08/29 00:48:40;;;;;;;921.28;858.88;;;;;;;17.60;58.37;101379.47;697412;28;46384;-64
2022/08/29 00:49:03;;;;;;;908.55;846.58;;;;;;;17.56;58.55;101372.72;695166;28;69386;-64
2022/08/29 00:49:29;;;;;;;905.90;844.00;;;;;;;17.59;58.75;101383.22;695421;28;42529;-64
2022/08/29 00:49:52;;;;;;;912.90;850.78;;;;;;;17.55;58.66;101372.94;691483;28;138022;-64
2022/08/29 00:50:27;;;;;;;919.15;856.83;;;;;;;17.58;58.54;101384.28;694441;28;69429;-64
2022/08/29 00:50:53;;;;;;;920.22;857.88;;;;;;;17.56;58.73;101377.34;693877;28;137712;-64
2022/08/29 00:51:16;;;;;;;911.78;849.67;;;;;;;17.54;58.79;101374.84;693879;28;137784;-64
2022/08/29 00:51:39;;;;;;;921.85;859.47;;;;;;;17.60;58.50;101382.19;695607;28;89933;-64
2022/08/29 00:52:06;;;;;;;917.38;855.08;;;;;;;17.60;58.73;101384.94;693955;28;69390;-64
2022/08/29 00:52:33;;;;;;;907.95;846.03;;;;;;;17.52;58.92;101368.72;691366;28;138084;-64
2022/08/29 00:52:56;;;;;;;921.55;859.20;;;;;;;17.60;58.70;101384.94;691089;28;148778;-64
2022/08/29 00:53:23;;;;;;;917.80;855.60;;;;;;;17.58;58.66;101380.72;693891;28;69395;-64
2022/08/29 00:53:48;;;;;;;910.83;848.83;;;;;;;17.58;58.69;101377.97;690596;28;160242;-64
2022/08/29 00:54:10;;;;;;;905.45;843.60;;;;;;;17.52;58.66;101370.63;692178;28;115580;-64
2022/08/29 00:54:32;;;;;;;918.28;856.08;;;;;;;17.57;58.81;101385.34;693918;28;69331;-64
2022/08/29 00:54:54;;;;;;;912.92;850.88;;;;;;;17.57;58.77;101385.34;694947;28;23653;-64
2022/08/29 00:55:20;;;;;;;925.00;862.50;;;;;;;17.55;58.89;101384.69;695027;28;44363;-64
2022/08/29 00:55:42;;;;;;;922.17;859.72;;;;;;;17.54;58.82;101388.50;691294;28;138122;-64
2022/08/29 00:56:05;;;;;;;911.33;849.25;;;;;;;17.55;58.91;101383.84;693809;28;67444;-64
2022/08/29 00:56:27;;;;;;;906.80;844.92;;;;;;;17.53;58.95;101389.53;694678;28;46392;-64
2022/08/29 00:56:49;;;;;;;910.97;848.97;;;;;;;17.51;58.88;101377.13;696493;28;45254;-64
2022/08/29 00:57:11;;;;;;;924.65;861.78;;;;;;;17.52;59.04;101379.63;699551;28;46440;-64
2022/08/29 00:57:32;;;;;;;922.40;860.00;;;;;;;17.51;59.00;101377.97;700315;28;46586;-64
2022/08/29 00:57:56;;;;;;;921.53;859.13;;;;;;;17.51;58.88;101377.97;699285;28;44386;-64
2022/08/29 00:58:32;;;;;;;920.42;857.97;;;;;;;17.50;59.08;101381.75;693655;28;67312;-64
2022/08/29 00:58:56;;;;;;;921.33;859.05;;;;;;;17.49;59.02;101380.06;694135;28;136973;-64
2022/08/29 00:59:20;;;;;;;909.60;847.78;;;;;;;17.47;58.87;101376.69;695836;28;92146;-64
2022/08/29 00:59:41;;;;;;;916.67;854.72;;;;;;;17.45;59.06;101373.34;696641;28;67478;-64
2022/08/29 01:00:05;;;;;;;919.40;857.20;;;;;;;17.46;58.94;101378.59;697671;28;23532;-65
2022/08/29 01:00:27;;;;;;;912.15;850.17;;;;;;;17.46;59.30;101378.59;694877;28;115241;-64
2022/08/29 01:00:49;;;;;;;911.85;849.85;;;;;;;17.46;59.24;101380.47;698032;28;28397;-65
2022/08/29 01:01:10;;;;;;;916.70;854.42;;;;;;;17.46;59.36;101385.94;698212;28;21281;-65
2022/08/29 01:01:32;;;;;;;910.10;848.10;;;;;;;17.45;59.22;101378.81;697497;28;46646;-65
2022/08/29 01:01:54;;;;;;;911.53;849.42;;;;;;;17.43;59.21;101370.81;693648;28;46326;-65
2022/08/29 01:02:16;;;;;;;907.60;845.60;;;;;;;17.45;59.27;101376.06;696983;28;46478;-64
2022/08/29 01:02:38;;;;;;;905.35;843.55;;;;;;;17.46;59.53;101384.06;698333;28;23438;-65
2022/08/29 01:03:01;;;;;;;917.13;854.92;;;;;;;17.45;59.36;101376.06;696487;28;69365;-65
2022/08/29 01:03:23;;;;;;;909.13;847.20;;;;;;;17.46;59.42;101380.47;696509;28;69405;-65
2022/08/29 01:03:44;;;;;;;904.88;843.15;;;;;;;17.44;59.23;101377.09;697504;28;44210;-65
2022/08/29 01:04:06;;;;;;;908.85;846.92;;;;;;;17.40;59.10;101373.97;697990;28;23761;-64
2022/08/29 01:04:27;;;;;;;915.80;853.55;;;;;;;17.43;59.36;101375.44;697782;28;23957;-65
2022/08/29 01:04:49;;;;;;;910.70;848.67;;;;;;;17.45;59.08;101382.38;698357;28;23522;-64
2022/08/29 01:05:12;;;;;;;908.00;846.00;;;;;;;17.46;59.25;101375.00;697334;28;45245;-65
2022/08/29 01:05:33;;;;;;;909.42;847.42;;;;;;;17.45;59.33;101378.81;696633;28;69469;-65
2022/08/29 01:05:54;;;;;;;919.92;857.55;;;;;;;17.45;59.23;101382.38;697912;28;22370;-65
2022/08/29 01:06:16;;;;;;;904.45;842.47;;;;;;;17.45;59.25;101382.38;698045;28;21530;-65
2022/08/29 01:06:38;;;;;;;905.47;843.47;;;;;;;17.45;59.25;101379.63;695701;28;44223;-65
2022/08/29 01:07:01;;;;;;;906.58;844.45;;;;;;;17.40;59.18;101375.88;693305;28;47449;-64
2022/08/29 01:07:22;;;;;;;905.75;843.53;;;;;;;17.41;59.29;101372.06;695985;28;3380;-65
2022/08/29 01:07:43;;;;;;;913.00;850.92;;;;;;;17.37;58.93;101379.84;695493;28;22413;-65
2022/08/29 01:08:05;;;;;;;907.25;845.33;;;;;;;17.34;59.42;101377.50;695524;28;22402;-64
2022/08/29 01:08:29;;;;;;;913.50;851.28;;;;;;;17.34;59.17;101382.16;694586;28;46288;-65
2022/08/29 01:08:51;;;;;;;905.65;843.75;;;;;;;17.33;59.40;101383.19;693013;28;92235;-64
2022/08/29 01:09:12;;;;;;;900.10;838.30;;;;;;;17.31;59.46;101385.28;694561;28;46428;-65
2022/08/29 01:09:35;;;;;;;903.92;842.08;;;;;;;17.28;59.63;101376.44;695467;28;22339;-64
2022/08/29 01:09:56;;;;;;;896.65;835.05;;;;;;;17.26;59.44;101378.53;696680;28;69236;-65
2022/08/29 01:12:16;;;;;;;907.38;845.38;;;;;;;17.22;59.90;101387.34;689460;28;157213;-64
2022/08/29 01:12:37;;;;;;;906.55;844.70;;;;;;;17.20;60.09;101384.81;694497;28;44537;-64
2022/08/29 01:12:59;;;;;;;911.75;849.65;;;;;;;17.20;59.83;101387.56;694956;28;22395;-65
2022/08/29 01:13:21;;;;;;;911.97;849.88;;;;;;;17.19;60.00;101387.75;694185;28;46263;-64
2022/08/29 01:13:44;;;;;;;915.70;853.65;;;;;;;17.19;59.88;101391.31;694096;28;45243;-65
2022/08/29 01:14:06;;;;;;;913.92;851.97;;;;;;;17.19;60.00;101387.75;693639;28;69384;-65
2022/08/29 01:14:28;;;;;;;907.13;845.45;;;;;;;17.18;59.96;101383.34;693858;28;67230;-64
2022/08/29 01:14:51;;;;;;;910.40;848.47;;;;;;;17.16;59.84;101385.44;695071;28;23475;-64
2022/08/29 01:15:13;;;;;;;910.85;848.85;;;;;;;17.14;59.92;101385.66;692868;28;93043;-65
2022/08/29 01:15:35;;;;;;;908.00;846.10;;;;;;;17.15;60.05;101389.19;695484;28;22543;-65
2022/08/29 01:15:58;;;;;;;912.40;850.33;;;;;;;17.11;59.97;101392.38;693818;28;67507;-65
2022/08/29 01:16:20;;;;;;;908.90;846.85;;;;;;;17.13;60.06;101386.69;696075;28;45241;-65
2022/08/29 01:16:42;;;;;;;923.60;861.17;;;;;;;17.11;60.29;101386.91;698006;28;31421;-65
2022/08/29 01:17:04;;;;;;;908.40;846.10;;;;;;;17.14;60.42;101390.28;695756;28;51966;-64
2022/08/29 01:17:29;;;;;;;910.28;847.97;;;;;;;17.14;60.16;101388.38;697225;28;46300;-65
2022/08/29 01:17:51;;;;;;;917.70;855.50;;;;;;;17.14;60.26;101391.09;695798;28;114390;-64
2022/08/29 01:18:14;;;;;;;916.38;854.13;;;;;;;17.11;60.11;101386.06;700377;28;38881;-64
2022/08/29 01:18:37;;;;;;;911.40;849.33;;;;;;;17.16;60.19;101391.72;700119;28;46298;-65
2022/08/29 01:19:01;;;;;;;911.33;849.22;;;;;;;17.16;60.24;101382.72;700762;28;27238;-65
2022/08/29 01:19:32;;;;;;;910.70;848.70;;;;;;;17.17;60.34;101385.25;698267;28;92003;-64
2022/08/29 01:19:56;;;;;;;907.17;845.28;;;;;;;17.15;60.22;101387.34;696730;28;137122;-65
2022/08/29 01:20:24;;;;;;;902.05;840.35;;;;;;;17.17;60.02;101390.69;698479;28;92174;-64
2022/08/29 01:20:51;;;;;;;899.10;837.45;;;;;;;17.18;60.04;101391.53;696669;28;137482;-65
2022/08/29 01:21:15;;;;;;;899.22;837.53;;;;;;;17.16;60.31;101391.72;696017;28;137693;-65
2022/08/29 01:21:44;;;;;;;901.30;839.53;;;;;;;17.15;60.28;101390.06;694745;28;114982;-65
2022/08/29 01:22:11;;;;;;;899.40;837.78;;;;;;;17.16;60.16;101390.91;692520;28;156559;-65
2022/08/29 01:22:51;;;;;;;911.13;849.00;;;;;;;17.16;60.31;101391.72;694058;28;136257;-64
2022/08/29 01:23:17;;;;;;;914.38;852.15;;;;;;;17.16;59.94;101393.63;691021;28;137346;-64
2022/08/29 01:23:44;;;;;;;913.92;851.72;;;;;;;17.15;60.41;101387.34;691546;28;136371;-65
2022/08/29 01:24:10;;;;;;;912.83;850.67;;;;;;;17.11;60.38;101392.38;691326;28;137612;-64
2022/08/29 01:24:39;;;;;;;913.47;851.20;;;;;;;17.13;60.21;101392.13;691397;28;136290;-64
2022/08/29 01:25:01;;;;;;;921.72;859.17;;;;;;;17.11;60.13;101392.38;693349;28;134382;-64
2022/08/29 01:25:23;;;;;;;909.97;847.92;;;;;;;17.10;60.15;101384.38;694611;28;44113;-64
2022/08/29 01:25:48;;;;;;;913.80;851.63;;;;;;;17.13;60.12;101394.03;693859;28;67498;-64
2022/08/29 01:26:11;;;;;;;908.38;846.38;;;;;;;17.13;60.46;101394.88;692056;28;114933;-64
2022/08/29 01:26:32;;;;;;;889.20;827.80;;;;;;;17.09;60.42;101399.06;694695;28;45246;-64
2022/08/29 01:26:54;;;;;;;882.83;821.53;;;;;;;17.12;60.22;101398.66;693289;28;46393;-64
2022/08/29 01:27:17;;;;;;;884.08;822.65;;;;;;;17.12;60.32;101395.94;695202;28;21555;-64
2022/08/29 01:27:42;;;;;;;907.03;844.97;;;;;;;17.09;60.33;101396.34;696576;28;69714;-64
2022/08/29 01:28:06;;;;;;;926.80;864.05;;;;;;;17.13;60.34;101397.59;693224;28;115164;-64
2022/08/29 01:28:30;;;;;;;905.10;843.17;;;;;;;17.12;60.35;101398.66;695979;28;51862;-64
2022/08/29 01:28:52;;;;;;;912.05;850.05;;;;;;;17.11;60.39;101402.44;692545;28;92134;-64
2022/08/29 01:29:14;;;;;;;918.53;856.25;;;;;;;17.13;60.45;101400.31;696752;28;23329;-64
2022/08/29 01:29:35;;;;;;;909.35;847.47;;;;;;;17.12;60.25;101401.41;696345;28;67202;-64
2022/08/29 01:29:56;;;;;;;914.30;852.10;;;;;;;17.13;60.42;101403.06;696927;28;22395;-64
2022/08/29 01:30:18;;;;;;;912.55;850.38;;;;;;;17.11;60.33;101394.25;698062;28;21572;-64
2022/08/29 01:30:59;;;;;;;915.95;853.80;;;;;;;17.11;60.33;101407.88;697466;28;44227;-64
2022/08/29 01:31:22;;;;;;;910.95;848.83;;;;;;;17.11;60.33;101402.44;693221;28;160839;-64
2022/08/29 01:31:46;;;;;;;924.08;861.58;;;;;;;17.09;60.23;101410.81;696313;27;90311;-64
2022/08/29 01:32:07;;;;;;;902.80;840.85;;;;;;;17.10;60.58;101401.59;697003;28;92145;-64
2022/08/29 01:32:29;;;;;;;886.85;825.45;;;;;;;17.12;60.54;101401.41;697899;28;22393;-64
2022/08/29 01:32:52;;;;;;;882.83;821.60;;;;;;;17.10;60.46;101396.13;697065;28;46303;-64
2022/08/29 01:33:13;;;;;;;885.80;824.42;;;;;;;17.13;60.40;101405.78;693503;28;69471;-64
2022/08/29 01:33:40;;;;;;;882.40;821.28;;;;;;;17.13;60.38;101404.97;695248;28;22406;-64
2022/08/29 01:34:01;;;;;;;886.60;825.25;;;;;;;17.14;60.42;101412.94;691116;28;138695;-64
2022/08/29 01:34:24;;;;;;;896.70;834.95;;;;;;;17.15;60.19;101409.16;695332;28;20885;-64
2022/08/29 01:34:45;;;;;;;881.08;819.90;;;;;;;17.16;60.32;101410.84;695660;28;68164;-64
2022/08/29 01:35:07;;;;;;;871.85;810.95;;;;;;;17.14;60.36;101398.47;700843;28;23509;-64
2022/08/29 01:35:30;;;;;;;883.80;822.50;;;;;;;17.16;59.93;101413.56;698186;28;45225;-64
2022/08/29 01:35:51;;;;;;;894.40;832.83;;;;;;;17.17;60.17;101414.44;698200;28;67493;-64
2022/08/29 01:36:16;;;;;;;881.75;820.55;;;;;;;17.12;60.12;101404.13;700957;28;22398;-64
2022/08/29 01:36:41;;;;;;;891.25;829.70;;;;;;;17.14;60.29;101407.47;695198;28;113611;-64
2022/08/29 01:37:05;;;;;;;898.20;836.20;;;;;;;17.14;60.17;101412.94;693068;28;117100;-64
2022/08/29 01:37:28;;;;;;;883.78;822.25;;;;;;;17.10;60.15;101409.78;695268;28;93236;-64
2022/08/29 01:37:49;;;;;;;883.15;821.85;;;;;;;17.11;60.47;101408.75;696565;28;69459;-64
2022/08/29 01:38:26;;;;;;;894.15;832.53;;;;;;;17.13;60.29;101411.25;698071;28;23482;-64
2022/08/29 01:38:48;;;;;;;887.30;826.00;;;;;;;17.10;60.17;101407.06;694191;28;137541;-64
2022/08/29 01:39:09;;;;;;;888.50;827.05;;;;;;;17.13;60.23;101408.50;696103;28;43789;-64
2022/08/29 01:39:35;;;;;;;880.33;819.13;;;;;;;17.14;60.34;101412.94;694654;28;46237;-64
2022/08/29 01:39:58;;;;;;;886.05;824.65;;;;;;;17.13;60.46;101413.97;691615;28;136257;-63
2022/08/29 01:40:21;;;;;;;880.47;819.28;;;;;;;17.12;60.62;101409.59;694595;28;44387;-64
2022/08/29 01:40:42;;;;;;;881.25;819.97;;;;;;;17.12;60.42;101412.31;694036;28;67489;-64
2022/08/29 01:41:04;;;;;;;880.45;819.25;;;;;;;17.13;60.43;101413.97;695447;28;22400;-63
2022/08/29 01:41:26;;;;;;;874.33;813.33;;;;;;;17.10;60.25;101412.50;696488;28;44395;-64
2022/08/29 01:41:48;;;;;;;881.00;819.75;;;;;;;17.11;60.51;101413.34;695605;28;69251;-63
2022/08/29 01:42:13;;;;;;;895.00;833.40;;;;;;;17.10;60.33;101409.78;697452;28;45244;-64
2022/08/29 01:42:35;;;;;;;887.17;825.85;;;;;;;17.09;60.59;101416.28;695521;28;90573;-64
2022/08/29 01:42:56;;;;;;;872.72;811.95;;;;;;;17.09;60.32;101410.00;696863;28;46527;-64
2022/08/29 01:43:17;;;;;;;880.30;819.20;;;;;;;17.09;60.41;101419.00;697788;28;22396;-64
2022/08/29 01:43:41;;;;;;;891.10;829.67;;;;;;;17.06;60.48;101407.66;697219;28;45241;-64
2022/08/29 01:44:08;;;;;;;878.60;817.60;;;;;;;17.05;60.63;101409.56;695505;28;92257;-64
2022/08/29 01:44:29;;;;;;;892.08;830.63;;;;;;;17.05;60.57;101409.56;692750;28;161076;-64
2022/08/29 01:44:53;;;;;;;888.70;827.33;;;;;;;17.06;60.51;101411.22;694644;28;45135;-64
2022/08/29 01:45:15;;;;;;;873.45;812.47;;;;;;;17.07;60.33;101414.81;695715;28;69435;-64